Nearby METAR Reports

 

KGRB - Ashwaubenon, Wisconsin, USA
Distance from station: NW 5mi, 8km
Updated: Thu, 23-Jan-2020 2:53pm CST
Light snow, Mist, Overcast
Light snow, Mist, Overcast
 Wind from NE
Wind: NE 10 mph , 17 km/h
Temperature: 30°F , -1°C
Wind Chill: 21°F , -6°C
Dew Point: 28°F , -2°C
Humidity: 93%
Barometer: 30.05 inHg , 1017.6 hPa
Summary: Light snow, Mist
Clouds: Overcast
Visibility: 1 3/4 miles , 2.8 km
Cloud details: Mostly cloudy 600 ft
Overcast 3200 ft
2020/01/23 20:53 KGRB 232053Z 04009KT 1 3/4SM -SN BR BKN006 OVC032 M01/M02 A3005 RMK AO2 SLP186 P0001 60002 T10061022 55004
KATW - Appleton/Outagam, Wisconsin, USA
Distance from station: WSW 26mi, 42km
Updated: Thu, 23-Jan-2020 2:45pm CST
Light snow, Overcast
Light snow, Overcast
 Wind from ENE
Wind: ENE 7 mph , 11 km/h
Temperature: 32°F , 0°C
Wind Chill: 25°F , -4°C
Dew Point: 27°F , -3°C
Humidity: 80%
Barometer: 30.01 inHg , 1016.3 hPa
Summary: Light Snow
Clouds: Overcast
Visibility: 3 miles , 5 km
Cloud details: Overcast 600 ft
2020/01/23 20:45 KATW 232045Z 06006KT 3SM -SN OVC006 00/M03 A3001
 
KMTW - Manitowac Muni, Wisconsin, USA
Distance from station: SE 29mi, 47km
Updated: Thu, 23-Jan-2020 2:56pm CST
Light snow, Mist, Overcast
Light snow, Mist, Overcast
 Wind from ENE
Wind: ENE 5 mph , 7 km/h
Temperature: 34°F , 1°C
Wind Chill: 29°F , -2°C
Dew Point: 30°F , -1°C
Humidity: 87%
Barometer: 30.05 inHg , 1017.6 hPa
Summary: Light snow, Mist
Clouds: Overcast
Visibility: 2 miles , 3 km
Cloud details: Few Clouds 1400 ft
Overcast 2900 ft
2020/01/23 20:56 KMTW 232056Z AUTO 07004KT 2SM -SN BR FEW014 OVC029 01/M01 A3005 RMK AO2 SLP185 P0001 60001 T00061006 55003 FZRANO
KOCQ - Oconto, Wisconsin, USA
Distance from station: NNE 30mi, 49km
Updated: Thu, 23-Jan-2020 2:55pm CST
Overcast
Overcast
 Wind from NE
Wind: NE 5 mph , 7 km/h
Temperature: 32°F , 0°C
Wind Chill: 27°F , -3°C
Dew Point: 30°F , -1°C
Humidity: 93%
Barometer: 30.07 inHg , 1018.3 hPa
Clouds: Overcast
Visibility: 1 1/2 miles , 2.4 km
Cloud details: Overcast 600 ft
2020/01/23 20:55 KOCQ 232055Z AUTO 05004KT 1 1/2SM OVC006 00/M01 A3007 RMK AO1 T10031011
 
KEZS - Shawano Muni, Wisconsin, USA
Distance from station: NW 35mi, 56km
Updated: Thu, 23-Jan-2020 2:55pm CST
Light snow, Overcast
Light snow, Overcast
 Wind from ENE
Wind: ENE 7 mph , 11 km/h
Temperature: 34°F , 1°C
Wind Chill: 28°F , -2°C
Dew Point: 30°F , -1°C
Humidity: 87%
Barometer: 30.05 inHg , 1017.6 hPa
Summary: Light Snow
Clouds: Overcast
Visibility: 2 1/2 miles , 4 km
Cloud details: Overcast 1400 ft
2020/01/23 20:55 KEZS 232055Z AUTO 07006KT 2 1/2SM -SN OVC014 01/M01 A3005 RMK AO2 T00051007
KCLI - Clintonville, Wisconsin, USA
Distance from station: WNW 36mi, 58km
Updated: Thu, 23-Jan-2020 2:55pm CST
Light snow, Overcast
Light snow, Overcast
 Wind from ENE
Wind: ENE 6 mph , 9 km/h
Temperature: 32°F , 0°C
Wind Chill: 26°F , -3°C
Dew Point: 28°F , -2°C
Humidity: 87%
Barometer: 30.04 inHg , 1017.3 hPa
Summary: Light Snow
Clouds: Overcast
Visibility: 2 miles , 3 km
Cloud details: Overcast 900 ft
2020/01/23 20:55 KCLI 232055Z AUTO 07005KT 2SM -SN OVC009 00/M02 A3004 RMK AO2 T00001021
 
KOSH - Oshkosh, Wisconsin, USA
Distance from station: SW 41mi, 66km
Updated: Thu, 23-Jan-2020 2:53pm CST
Mist, Overcast
Mist, Overcast
 Wind from NE
Wind: NE 6 mph , 9 km/h
Temperature: 30°F , -1°C
Wind Chill: 24°F , -4°C
Dew Point: 28°F , -2°C
Humidity: 93%
Barometer: 30.02 inHg , 1016.6 hPa
Summary: Mist
Clouds: Overcast
Visibility: 3 miles , 5 km
Cloud details: Mostly cloudy 2000 ft
Overcast 10000 ft
2020/01/23 20:53 KOSH 232053Z 05005KT 3SM BR BKN020 OVC100 M01/M02 A3002 RMK AO2 SLP182 60000 T10061022 55002
KSUE - Sturgeon Bay, Wisconsin, USA
Distance from station: NE 42mi, 68km
Updated: Thu, 23-Jan-2020 2:56pm CST
Light snow, Mist, Overcast
Light snow, Mist, Overcast
 Wind from N
Wind: N 3 mph , 6 km/h
Temperature: 34°F , 1°C
Dew Point: 30°F , -1°C
Humidity: 87%
Barometer: 30.07 inHg , 1018.3 hPa
Summary: Light snow, Mist
Clouds: Overcast
Visibility: 1 1/2 miles , 2.4 km
Cloud details: Overcast 400 ft
2020/01/23 20:56 KSUE 232056Z AUTO 01003KT 1 1/2SM -SN BR OVC004 01/M01 A3007 RMK AO2 UPE20SNB20 SLP191 P0000 60001 T00061006 53000 FZRANO $
 
KSBM - Sheboygan, Wisconsin, USA
Distance from station: SSE 46mi, 75km
Updated: Thu, 23-Jan-2020 2:53pm CST
Light snow, Mist, Overcast
Light snow, Mist, Overcast
 Wind from SE
Wind: SE 5 mph , 7 km/h
Temperature: 34°F , 1°C
Wind Chill: 29°F , -2°C
Dew Point: 30°F , -1°C
Humidity: 87%
Barometer: 30.03 inHg , 1016.9 hPa
Summary: Light snow, Mist
Clouds: Overcast
Visibility: 3/4 mile , 1.2 km
Cloud details: Mostly cloudy 500 ft
Overcast 1300 ft
2020/01/23 20:53 KSBM 232053Z AUTO 14004KT 3/4SM -SN BR BKN005 OVC013 01/M01 A3003 RMK AO2 SLP179 P0001 60003 T00061011 55005
KPCZ - Waupaca, Wisconsin, USA
Distance from station: W 48mi, 77km
Updated: Thu, 23-Jan-2020 2:55pm CST
Light snow, Overcast
Light snow, Overcast
 Wind from ENE
Wind: ENE 5 mph , 7 km/h
Temperature: 34°F , 1°C
Wind Chill: 29°F , -2°C
Dew Point: 30°F , -1°C
Humidity: 87%
Barometer: 30.03 inHg , 1016.9 hPa
Summary: Light Snow
Clouds: Overcast
Visibility: 2 miles , 3 km
Cloud details: Overcast 1300 ft
2020/01/23 20:55 KPCZ 232055Z AUTO 06004KT 2SM -SN OVC013 01/M01 A3003 RMK AO2 T00071015